Time;durP1;ratioP1;P1;durP2;ratioP2;P2;SDS_P1;SDS_P2;PMS_P1;PMS_P2;Temp;Humidity;BMP_temperature;BMP_pressure;BME280_temperature;BME280_humidity;BME280_pressure;Samples;Min_cycle;Max_cycle;Signal;HPM_P1;HPM_P2
2023/06/29 00:02:24;;;;;;;4.60;2.60;;;;;;;;;;5080620;28;20068;-64
2023/06/29 00:04:54;;;;;;;4.35;2.30;;;;;;;;;;5079461;28;20048;-64
2023/06/29 00:07:25;;;;;;;8.73;2.60;;;;;;;;;;5082708;28;20051;-65
2023/06/29 00:09:54;;;;;;;4.53;2.80;;;;;;;;;;5080041;28;20584;-64
2023/06/29 00:12:23;;;;;;;4.72;2.25;;;;;;;;;;5081092;28;20040;-64
2023/06/29 00:14:51;;;;;;;3.63;2.30;;;;;;;;;;5078125;28;20170;-64
2023/06/29 00:17:21;;;;;;;3.50;1.90;;;;;;;;;;5078913;28;20043;-64
2023/06/29 00:19:50;;;;;;;3.60;2.08;;;;;;;;;;5080366;28;20047;-64
2023/06/29 00:22:18;;;;;;;5.25;1.90;;;;;;;;;;5081582;28;20534;-64
2023/06/29 00:24:55;;;;;;;3.75;2.00;;;;;;;;;;5078509;28;20094;-64
2023/06/29 00:27:24;;;;;;;3.10;2.35;;;;;;;;;;5081039;28;20048;-64
2023/06/29 00:29:52;;;;;;;4.75;2.17;;;;;;;;;;5083941;28;20052;-64
2023/06/29 00:32:22;;;;;;;5.07;2.05;;;;;;;;;;5082626;28;20495;-64
2023/06/29 00:34:51;;;;;;;3.35;2.50;;;;;;;;;;5081066;28;20148;-64
2023/06/29 00:37:19;;;;;;;4.43;2.10;;;;;;;;;;5078805;28;20484;-64
2023/06/29 00:39:48;;;;;;;4.03;2.28;;;;;;;;;;5079649;28;20101;-63
2023/06/29 00:42:16;;;;;;;4.57;2.00;;;;;;;;;;5080575;28;20044;-64
2023/06/29 00:44:46;;;;;;;5.05;2.42;;;;;;;;;;5077635;28;20125;-64
2023/06/29 00:47:14;;;;;;;3.17;2.10;;;;;;;;;;5080883;28;21047;-64
2023/06/29 00:49:44;;;;;;;6.15;2.20;;;;;;;;;;5080260;28;20177;-64
2023/06/29 00:52:12;;;;;;;5.13;2.22;;;;;;;;;;5081473;28;20139;-64
2023/06/29 00:54:41;;;;;;;3.53;2.03;;;;;;;;;;5079335;28;20090;-64
2023/06/29 00:57:10;;;;;;;6.40;2.55;;;;;;;;;;5080126;28;20056;-64
2023/06/29 00:59:38;;;;;;;3.55;2.67;;;;;;;;;;5080453;28;20114;-64
2023/06/29 01:02:08;;;;;;;4.25;2.50;;;;;;;;;;5095476;23;20051;-68
2023/06/29 01:04:38;;;;;;;5.03;2.50;;;;;;;;;;5089034;28;20527;-67
2023/06/29 01:07:09;;;;;;;3.13;1.95;;;;;;;;;;5083935;28;20062;-67
2023/06/29 01:09:38;;;;;;;5.32;2.42;;;;;;;;;;5083534;28;20504;-70
2023/06/29 01:12:07;;;;;;;2.72;2.03;;;;;;;;;;5083395;28;20071;-66
2023/06/29 01:14:37;;;;;;;3.80;2.30;;;;;;;;;;5083428;28;20048;-70
2023/06/29 01:17:06;;;;;;;2.95;1.80;;;;;;;;;;5081416;28;20183;-67
2023/06/29 01:19:35;;;;;;;4.85;1.92;;;;;;;;;;5081846;28;20048;-67
2023/06/29 01:22:04;;;;;;;4.47;2.10;;;;;;;;;;5081836;28;20690;-68
2023/06/29 01:24:38;;;;;;;3.55;2.10;;;;;;;;;;5083344;28;20137;-68
2023/06/29 01:27:08;;;;;;;2.47;1.85;;;;;;;;;;5083973;28;20121;-67
2023/06/29 01:29:36;;;;;;;6.35;1.98;;;;;;;;;;5083732;28;20402;-67
2023/06/29 01:32:07;;;;;;;3.15;2.17;;;;;;;;;;5080969;28;20059;-67
2023/06/29 01:34:36;;;;;;;5.90;2.28;;;;;;;;;;5080975;28;20056;-68
2023/06/29 01:37:06;;;;;;;4.80;2.25;;;;;;;;;;5083310;28;20104;-70
2023/06/29 01:39:37;;;;;;;2.60;1.88;;;;;;;;;;5081397;28;20060;-68
2023/06/29 01:42:07;;;;;;;2.72;2.20;;;;;;;;;;5082791;28;20044;-66
2023/06/29 01:44:36;;;;;;;3.85;2.25;;;;;;;;;;5082603;28;20530;-67
2023/06/29 01:47:05;;;;;;;5.20;2.47;;;;;;;;;;5081333;28;20105;-67
2023/06/29 01:49:34;;;;;;;3.83;2.38;;;;;;;;;;5081105;28;20048;-72
2023/06/29 01:52:03;;;;;;;3.65;2.42;;;;;;;;;;5082027;28;20076;-68
2023/06/29 01:54:32;;;;;;;3.50;1.85;;;;;;;;;;5082742;28;20070;-67
2023/06/29 01:57:00;;;;;;;2.97;2.13;;;;;;;;;;5082913;28;20083;-68
2023/06/29 01:59:30;;;;;;;5.80;2.60;;;;;;;;;;5081926;28;20043;-67
2023/06/29 02:01:58;;;;;;;2.85;2.03;;;;;;;;;;5081601;28;20139;-68
2023/06/29 02:04:27;;;;;;;3.67;2.28;;;;;;;;;;5080342;28;20040;-67
2023/06/29 02:06:56;;;;;;;3.50;2.47;;;;;;;;;;5081444;28;20040;-68
2023/06/29 02:09:24;;;;;;;4.78;2.63;;;;;;;;;;5079740;28;20130;-69
2023/06/29 02:11:53;;;;;;;3.78;2.22;;;;;;;;;;5081346;28;20067;-68
2023/06/29 02:14:21;;;;;;;3.53;2.15;;;;;;;;;;5080313;28;20055;-68
2023/06/29 02:16:52;;;;;;;5.20;2.50;;;;;;;;;;5079301;28;20059;-68
2023/06/29 02:19:21;;;;;;;3.00;2.00;;;;;;;;;;5082431;28;20032;-69
2023/06/29 02:21:49;;;;;;;3.83;2.20;;;;;;;;;;5080363;28;20462;-68
2023/06/29 02:24:18;;;;;;;3.13;1.92;;;;;;;;;;5081094;28;20711;-67
2023/06/29 02:26:46;;;;;;;5.63;2.08;;;;;;;;;;5079437;28;20052;-70
2023/06/29 02:29:15;;;;;;;5.47;2.10;;;;;;;;;;5082618;28;20056;-67
2023/06/29 02:31:43;;;;;;;2.70;1.70;;;;;;;;;;5081431;28;20118;-69
2023/06/29 02:34:13;;;;;;;3.67;1.90;;;;;;;;;;5080888;28;20063;-68
2023/06/29 02:36:42;;;;;;;5.32;2.60;;;;;;;;;;5078992;28;20048;-66
2023/06/29 02:39:10;;;;;;;4.20;2.00;;;;;;;;;;5082349;28;20055;-67
2023/06/29 02:41:39;;;;;;;2.83;2.08;;;;;;;;;;5081208;28;20500;-67
2023/06/29 02:44:07;;;;;;;2.92;2.10;;;;;;;;;;5082168;28;20043;-67
2023/06/29 02:46:36;;;;;;;3.92;2.40;;;;;;;;;;5080041;28;20036;-68
2023/06/29 02:49:04;;;;;;;2.67;2.00;;;;;;;;;;5082973;28;20052;-71
2023/06/29 02:51:34;;;;;;;3.72;2.03;;;;;;;;;;5082426;28;20051;-70
2023/06/29 02:54:02;;;;;;;3.08;1.80;;;;;;;;;;5083048;28;20168;-67
2023/06/29 02:56:31;;;;;;;5.25;2.40;;;;;;;;;;5080090;28;20047;-69
2023/06/29 02:58:59;;;;;;;2.65;1.88;;;;;;;;;;5082899;28;20097;-67
2023/06/29 03:01:27;;;;;;;3.55;2.38;;;;;;;;;;5081275;28;20056;-67
2023/06/29 03:03:56;;;;;;;4.10;2.20;;;;;;;;;;5082305;28;20487;-67
2023/06/29 03:06:24;;;;;;;3.78;2.22;;;;;;;;;;5080888;28;20048;-67
2023/06/29 03:08:54;;;;;;;3.85;2.33;;;;;;;;;;5081964;28;20047;-68
2023/06/29 03:11:23;;;;;;;4.78;2.00;;;;;;;;;;5081569;28;20079;-67
2023/06/29 03:13:54;;;;;;;3.45;2.15;;;;;;;;;;5083037;28;20961;-67
2023/06/29 03:16:22;;;;;;;4.45;2.30;;;;;;;;;;5082283;28;20532;-68
2023/06/29 03:18:51;;;;;;;3.15;2.20;;;;;;;;;;5082993;28;20066;-66
2023/06/29 03:21:19;;;;;;;2.67;2.17;;;;;;;;;;5087094;28;20052;-67
2023/06/29 03:23:49;;;;;;;4.22;2.25;;;;;;;;;;5086215;28;20131;-68
2023/06/29 03:26:19;;;;;;;5.75;2.20;;;;;;;;;;5088607;28;20501;-68
2023/06/29 03:28:47;;;;;;;4.60;2.42;;;;;;;;;;5087809;28;20432;-67
2023/06/29 03:31:15;;;;;;;3.13;2.20;;;;;;;;;;5088606;28;20052;-67
2023/06/29 03:33:45;;;;;;;3.88;1.98;;;;;;;;;;5087933;28;20044;-70
2023/06/29 03:36:13;;;;;;;4.00;2.10;;;;;;;;;;5086805;28;20108;-69
2023/06/29 03:38:41;;;;;;;2.88;1.88;;;;;;;;;;5085755;28;20047;-72
2023/06/29 03:41:10;;;;;;;3.00;2.25;;;;;;;;;;5089863;28;20061;-67
2023/06/29 03:43:40;;;;;;;3.97;2.10;;;;;;;;;;5087665;28;20091;-67
2023/06/29 03:46:08;;;;;;;4.18;2.30;;;;;;;;;;5088321;28;20078;-73
2023/06/29 03:48:37;;;;;;;3.92;2.03;;;;;;;;;;5088110;28;20048;-72
2023/06/29 03:51:06;;;;;;;3.22;1.92;;;;;;;;;;5088485;28;20047;-68
2023/06/29 03:53:34;;;;;;;4.93;2.63;;;;;;;;;;5088626;27;20080;-67
2023/06/29 03:56:02;;;;;;;3.78;2.00;;;;;;;;;;5088232;28;20488;-67
2023/06/29 03:58:31;;;;;;;5.75;2.28;;;;;;;;;;5088601;28;20134;-68
2023/06/29 04:01:01;;;;;;;4.50;2.50;;;;;;;;;;5089340;28;20084;-68
2023/06/29 04:03:29;;;;;;;3.45;1.73;;;;;;;;;;5086149;28;20098;-67
2023/06/29 04:05:59;;;;;;;3.40;1.80;;;;;;;;;;5086890;28;20040;-68
2023/06/29 04:08:27;;;;;;;3.20;1.98;;;;;;;;;;5086689;28;20051;-69
2023/06/29 04:10:56;;;;;;;3.15;1.98;;;;;;;;;;5088728;28;20078;-68
2023/06/29 04:13:24;;;;;;;2.75;2.05;;;;;;;;;;5087634;28;20448;-69
2023/06/29 04:15:54;;;;;;;4.35;1.88;;;;;;;;;;5087643;28;20125;-69
2023/06/29 04:18:23;;;;;;;7.93;2.33;;;;;;;;;;5089741;28;20113;-68
2023/06/29 04:20:53;;;;;;;5.40;2.13;;;;;;;;;;5089828;28;20074;-67
2023/06/29 04:23:21;;;;;;;4.68;2.10;;;;;;;;;;5088472;28;20040;-68
2023/06/29 04:25:49;;;;;;;3.72;2.30;;;;;;;;;;5086943;28;20165;-70
2023/06/29 04:28:18;;;;;;;4.00;1.95;;;;;;;;;;5088625;28;20044;-68
2023/06/29 04:30:46;;;;;;;3.40;2.28;;;;;;;;;;5085132;28;20083;-68
2023/06/29 04:33:15;;;;;;;6.57;2.40;;;;;;;;;;5083335;28;20044;-71
2023/06/29 04:35:46;;;;;;;4.20;2.28;;;;;;;;;;5081704;28;20059;-68
2023/06/29 04:38:15;;;;;;;4.05;2.42;;;;;;;;;;5083606;28;20052;-69
2023/06/29 04:40:43;;;;;;;3.97;2.33;;;;;;;;;;5082388;28;20071;-68
2023/06/29 04:43:13;;;;;;;5.25;2.83;;;;;;;;;;5078517;28;20068;-68
2023/06/29 04:45:41;;;;;;;3.90;2.20;;;;;;;;;;5081980;28;20055;-68
2023/06/29 04:48:10;;;;;;;4.55;2.53;;;;;;;;;;5082358;28;20048;-70
2023/06/29 04:50:39;;;;;;;4.85;2.15;;;;;;;;;;5081397;28;20047;-69
2023/06/29 04:53:11;;;;;;;3.25;1.95;;;;;;;;;;5083179;28;20061;-69
2023/06/29 04:55:40;;;;;;;3.30;2.15;;;;;;;;;;5081517;28;20040;-68
2023/06/29 04:58:08;;;;;;;3.95;2.05;;;;;;;;;;5080003;28;20040;-69
2023/06/29 05:00:37;;;;;;;3.47;2.17;;;;;;;;;;5083244;28;20089;-67
2023/06/29 05:03:05;;;;;;;5.05;2.30;;;;;;;;;;5080742;28;20056;-67
2023/06/29 05:05:34;;;;;;;3.13;2.10;;;;;;;;;;5082633;28;20056;-66
2023/06/29 05:08:02;;;;;;;3.80;1.80;;;;;;;;;;5081976;28;20048;-67
2023/06/29 05:10:32;;;;;;;4.07;2.20;;;;;;;;;;5084901;28;20052;-65
2023/06/29 05:13:00;;;;;;;3.17;2.25;;;;;;;;;;5080999;28;20040;-65
2023/06/29 05:15:29;;;;;;;3.17;2.08;;;;;;;;;;5082059;28;20044;-67
2023/06/29 05:17:57;;;;;;;2.75;2.10;;;;;;;;;;5082840;28;20122;-68
2023/06/29 05:20:26;;;;;;;3.50;2.03;;;;;;;;;;5080015;28;20052;-70
2023/06/29 05:22:54;;;;;;;5.57;2.58;;;;;;;;;;5083480;28;20109;-69
2023/06/29 05:25:23;;;;;;;3.42;1.95;;;;;;;;;;5083788;28;20079;-69
2023/06/29 05:27:52;;;;;;;3.08;1.92;;;;;;;;;;5084881;28;20587;-67
2023/06/29 05:30:21;;;;;;;4.53;2.05;;;;;;;;;;5083596;28;20040;-65
2023/06/29 05:32:50;;;;;;;5.85;2.03;;;;;;;;;;5083360;28;20093;-68
2023/06/29 05:35:18;;;;;;;4.30;2.17;;;;;;;;;;5082271;28;20055;-66
2023/06/29 05:37:48;;;;;;;5.57;2.35;;;;;;;;;;5082316;28;20052;-66
2023/06/29 05:40:17;;;;;;;3.25;1.98;;;;;;;;;;5084387;28;20063;-67
2023/06/29 05:42:45;;;;;;;5.80;1.95;;;;;;;;;;5084079;28;20048;-67
2023/06/29 05:45:15;;;;;;;3.30;2.17;;;;;;;;;;5082789;28;20040;-67
2023/06/29 05:47:43;;;;;;;10.57;2.67;;;;;;;;;;5082325;28;20061;-66
2023/06/29 05:50:12;;;;;;;5.45;1.92;;;;;;;;;;5081658;28;20458;-68
2023/06/29 05:52:40;;;;;;;5.38;2.15;;;;;;;;;;5082531;28;20052;-70
2023/06/29 05:55:09;;;;;;;2.90;1.80;;;;;;;;;;5081060;28;20048;-66
2023/06/29 05:57:38;;;;;;;8.00;2.30;;;;;;;;;;5082340;28;20101;-72
2023/06/29 06:00:10;;;;;;;4.35;1.75;;;;;;;;;;5081095;28;20048;-68
2023/06/29 06:02:41;;;;;;;4.25;2.03;;;;;;;;;;5083589;28;20052;-69
2023/06/29 06:05:09;;;;;;;3.63;1.95;;;;;;;;;;5082794;28;20047;-73
2023/06/29 06:07:38;;;;;;;3.83;1.88;;;;;;;;;;5083484;28;20052;-67
2023/06/29 06:10:07;;;;;;;6.93;1.98;;;;;;;;;;5082496;28;20147;-68
2023/06/29 06:12:35;;;;;;;4.20;2.17;;;;;;;;;;5081599;28;20040;-67
2023/06/29 06:15:04;;;;;;;4.10;2.28;;;;;;;;;;5082808;28;20070;-67
2023/06/29 06:17:32;;;;;;;5.13;2.15;;;;;;;;;;5082870;28;20101;-67
2023/06/29 06:20:04;;;;;;;3.67;1.55;;;;;;;;;;5081524;28;20052;-67
2023/06/29 06:22:33;;;;;;;4.10;2.00;;;;;;;;;;5080072;28;20117;-67
2023/06/29 06:25:01;;;;;;;3.55;1.52;;;;;;;;;;5079715;28;20503;-68
2023/06/29 06:27:30;;;;;;;4.88;2.20;;;;;;;;;;5082733;28;20040;-67
2023/06/29 06:29:59;;;;;;;6.90;2.17;;;;;;;;;;5082703;28;20076;-71
2023/06/29 06:32:27;;;;;;;2.45;1.60;;;;;;;;;;5082392;28;20052;-68
2023/06/29 06:34:55;;;;;;;3.30;1.40;;;;;;;;;;5080633;28;20144;-66
2023/06/29 06:37:25;;;;;;;4.72;1.85;;;;;;;;;;5078049;28;20047;-68
2023/06/29 06:39:54;;;;;;;4.63;1.60;;;;;;;;;;5080512;28;20133;-72
2023/06/29 06:42:22;;;;;;;4.75;1.92;;;;;;;;;;5083455;28;20463;-69
2023/06/29 06:44:52;;;;;;;8.32;1.65;;;;;;;;;;5081591;28;20055;-67
2023/06/29 06:47:20;;;;;;;3.67;1.83;;;;;;;;;;5082362;28;20092;-69
2023/06/29 06:49:49;;;;;;;1.75;1.42;;;;;;;;;;5080711;28;20055;-68
2023/06/29 06:52:17;;;;;;;3.70;1.90;;;;;;;;;;5081729;28;20566;-71
2023/06/29 06:54:47;;;;;;;3.33;1.60;;;;;;;;;;5082055;28;20462;-69
2023/06/29 06:57:15;;;;;;;3.60;1.60;;;;;;;;;;5082315;28;20052;-69
2023/06/29 06:59:44;;;;;;;5.25;1.35;;;;;;;;;;5081536;28;20101;-68
2023/06/29 07:02:12;;;;;;;4.55;1.58;;;;;;;;;;5081862;28;20040;-68
2023/06/29 07:04:41;;;;;;;3.08;1.63;;;;;;;;;;5076084;28;20139;-73
2023/06/29 07:07:09;;;;;;;3.58;1.63;;;;;;;;;;5079758;28;20055;-68
2023/06/29 07:09:39;;;;;;;3.88;1.50;;;;;;;;;;5079080;28;20048;-69
2023/06/29 07:12:10;;;;;;;4.88;1.27;;;;;;;;;;5080438;28;20052;-68
2023/06/29 07:14:38;;;;;;;5.22;1.30;;;;;;;;;;5080179;28;20051;-70
2023/06/29 07:17:07;;;;;;;3.47;2.00;;;;;;;;;;5080665;28;20048;-68
2023/06/29 07:19:35;;;;;;;1.52;1.35;;;;;;;;;;5081098;28;20074;-69
2023/06/29 07:22:07;;;;;;;4.40;1.38;;;;;;;;;;5079645;28;20466;-68
2023/06/29 07:24:38;;;;;;;2.35;1.73;;;;;;;;;;5080032;28;20040;-68
2023/06/29 07:27:07;;;;;;;2.95;1.27;;;;;;;;;;5079772;28;20463;-68
2023/06/29 07:29:36;;;;;;;2.83;1.42;;;;;;;;;;5079211;28;20063;-72
2023/06/29 07:32:05;;;;;;;2.65;1.40;;;;;;;;;;5079975;28;20040;-68
2023/06/29 07:34:34;;;;;;;2.85;1.60;;;;;;;;;;5077663;28;20082;-67
2023/06/29 07:37:02;;;;;;;2.30;1.17;;;;;;;;;;5078192;28;20177;-67
2023/06/29 07:39:31;;;;;;;4.25;1.40;;;;;;;;;;5080980;28;20396;-66
2023/06/29 07:41:59;;;;;;;2.60;1.60;;;;;;;;;;5080697;28;20044;-67
2023/06/29 07:44:28;;;;;;;3.42;1.50;;;;;;;;;;5075679;28;20504;-69
2023/06/29 07:46:59;;;;;;;4.43;1.40;;;;;;;;;;5079195;28;20056;-71
2023/06/29 07:49:27;;;;;;;1.30;1.10;;;;;;;;;;5082177;28;20122;-69
2023/06/29 07:51:56;;;;;;;3.10;1.38;;;;;;;;;;5080696;28;20105;-69
2023/06/29 07:54:24;;;;;;;2.25;1.38;;;;;;;;;;5077692;28;20051;-75
2023/06/29 07:56:55;;;;;;;3.22;1.27;;;;;;;;;;5081597;28;20048;-69
2023/06/29 07:59:26;;;;;;;4.10;1.35;;;;;;;;;;5075817;28;20498;-69
2023/06/29 08:01:55;;;;;;;4.68;1.50;;;;;;;;;;5078333;28;20072;-69
2023/06/29 08:04:25;;;;;;;2.38;1.30;;;;;;;;;;5080508;28;20052;-67
2023/06/29 08:06:56;;;;;;;1.35;0.95;;;;;;;;;;5080472;28;20128;-68
2023/06/29 08:09:25;;;;;;;2.92;1.40;;;;;;;;;;5082500;28;20050;-69
2023/06/29 08:11:53;;;;;;;2.53;1.58;;;;;;;;;;5083869;28;20051;-71
2023/06/29 08:14:21;;;;;;;2.40;1.40;;;;;;;;;;5083643;28;20509;-67
2023/06/29 08:16:50;;;;;;;2.13;1.23;;;;;;;;;;5083262;28;20056;-67
2023/06/29 08:19:18;;;;;;;3.70;1.13;;;;;;;;;;5080515;28;20468;-69
2023/06/29 08:21:48;;;;;;;1.95;1.20;;;;;;;;;;5083453;28;20044;-72
2023/06/29 08:24:17;;;;;;;4.85;1.15;;;;;;;;;;5084097;28;20664;-69
2023/06/29 08:26:45;;;;;;;1.52;1.13;;;;;;;;;;5082476;28;20389;-67
2023/06/29 08:29:14;;;;;;;5.10;1.40;;;;;;;;;;5082195;28;20485;-73
2023/06/29 08:31:42;;;;;;;3.85;1.10;;;;;;;;;;5083384;28;20050;-70
2023/06/29 08:34:11;;;;;;;1.38;0.90;;;;;;;;;;5084140;28;20052;-66
2023/06/29 08:36:40;;;;;;;3.65;1.38;;;;;;;;;;5080438;28;20056;-68
2023/06/29 08:39:10;;;;;;;1.98;1.17;;;;;;;;;;5082920;28;20424;-69
2023/06/29 08:41:38;;;;;;;1.75;1.10;;;;;;;;;;5083462;28;20477;-68
2023/06/29 08:44:07;;;;;;;3.05;0.90;;;;;;;;;;5081325;28;20673;-69
2023/06/29 08:46:37;;;;;;;1.17;0.93;;;;;;;;;;5083066;28;20052;-70
2023/06/29 08:49:08;;;;;;;1.25;1.15;;;;;;;;;;5083046;28;20413;-68
2023/06/29 08:51:38;;;;;;;2.50;1.10;;;;;;;;;;5083406;28;20044;-68
2023/06/29 08:54:08;;;;;;;1.48;0.98;;;;;;;;;;5081481;28;20052;-68
2023/06/29 08:56:38;;;;;;;1.92;1.00;;;;;;;;;;5081983;28;20187;-67
2023/06/29 08:59:06;;;;;;;6.15;1.20;;;;;;;;;;5078110;28;20043;-73
2023/06/29 09:01:35;;;;;;;3.65;1.20;;;;;;;;;;5083720;28;20064;-67
2023/06/29 09:04:04;;;;;;;3.22;1.20;;;;;;;;;;5082866;28;20058;-67
2023/06/29 09:06:33;;;;;;;2.63;1.10;;;;;;;;;;5080769;28;20043;-68
2023/06/29 09:09:02;;;;;;;1.45;1.00;;;;;;;;;;5081544;28;20073;-70
2023/06/29 09:11:35;;;;;;;1.95;1.40;;;;;;;;;;5082479;28;20508;-70
2023/06/29 09:14:08;;;;;;;1.77;1.15;;;;;;;;;;5083881;28;20048;-67
2023/06/29 09:16:37;;;;;;;1.63;1.20;;;;;;;;;;5082689;28;20055;-67
2023/06/29 09:19:06;;;;;;;2.45;1.40;;;;;;;;;;5083884;28;20098;-66
2023/06/29 09:21:35;;;;;;;2.85;0.90;;;;;;;;;;5081770;28;20393;-70
2023/06/29 09:24:07;;;;;;;2.58;0.95;;;;;;;;;;5082473;28;20093;-70
2023/06/29 09:26:35;;;;;;;2.33;1.23;;;;;;;;;;5081867;28;20067;-69
2023/06/29 09:29:05;;;;;;;1.40;1.00;;;;;;;;;;5083190;28;20048;-66
2023/06/29 09:31:35;;;;;;;1.15;1.00;;;;;;;;;;5081864;28;20044;-69
2023/06/29 09:34:20;;;;;;;1.80;1.25;;;;;;;;;;5082192;28;20595;-67
2023/06/29 09:36:49;;;;;;;2.00;1.20;;;;;;;;;;5069764;28;20059;-68
2023/06/29 09:39:18;;;;;;;2.75;1.40;;;;;;;;;;5082327;28;20154;-67
2023/06/29 09:41:47;;;;;;;1.77;0.90;;;;;;;;;;5082649;28;20141;-67
2023/06/29 09:44:19;;;;;;;2.03;1.08;;;;;;;;;;5079863;28;20048;-71
2023/06/29 09:46:48;;;;;;;2.60;1.10;;;;;;;;;;5078263;28;20044;-67
2023/06/29 09:49:19;;;;;;;2.97;1.30;;;;;;;;;;5081693;28;20151;-74
2023/06/29 09:51:49;;;;;;;1.70;1.20;;;;;;;;;;5079858;28;20049;-68
2023/06/29 09:54:20;;;;;;;3.00;1.20;;;;;;;;;;5081532;28;20433;-67
2023/06/29 09:56:49;;;;;;;2.00;1.23;;;;;;;;;;5081956;28;20078;-75
2023/06/29 09:59:19;;;;;;;2.67;1.20;;;;;;;;;;5081398;28;20112;-67
2023/06/29 10:01:47;;;;;;;1.63;0.85;;;;;;;;;;5081610;28;20048;-68
2023/06/29 10:04:16;;;;;;;2.13;0.90;;;;;;;;;;5081807;28;20048;-66
2023/06/29 10:06:45;;;;;;;1.48;1.00;;;;;;;;;;5081904;28;20048;-67
2023/06/29 10:09:15;;;;;;;3.10;1.25;;;;;;;;;;5079784;28;20089;-69
2023/06/29 10:11:44;;;;;;;1.48;1.02;;;;;;;;;;5081588;28;20099;-69
2023/06/29 10:14:14;;;;;;;1.63;1.13;;;;;;;;;;5078491;28;20431;-76
2023/06/29 10:16:47;;;;;;;1.63;0.80;;;;;;;;;;5083218;28;20075;-67
2023/06/29 10:19:18;;;;;;;2.35;1.25;;;;;;;;;;5082639;28;20059;-67
2023/06/29 10:21:47;;;;;;;1.25;1.13;;;;;;;;;;5081502;28;20395;-67
2023/06/29 10:24:17;;;;;;;1.48;0.93;;;;;;;;;;5080012;28;20072;-74
2023/06/29 10:26:47;;;;;;;1.85;1.52;;;;;;;;;;5081090;28;20477;-68
2023/06/29 10:29:16;;;;;;;2.25;1.17;;;;;;;;;;5081531;28;20044;-67
2023/06/29 10:31:49;;;;;;;2.00;1.30;;;;;;;;;;5081666;28;20137;-68
2023/06/29 10:34:17;;;;;;;4.88;1.80;;;;;;;;;;5079869;28;20067;-68
2023/06/29 10:36:46;;;;;;;4.35;1.20;;;;;;;;;;5079614;28;20100;-72
2023/06/29 10:39:33;;;;;;;3.60;1.20;;;;;;;;;;5080728;28;20043;-70
2023/06/29 10:42:02;;;;;;;2.92;1.15;;;;;;;;;;5079737;28;20135;-68
2023/06/29 10:44:35;;;;;;;2.30;1.00;;;;;;;;;;5080444;28;20040;-69
2023/06/29 10:47:05;;;;;;;3.25;1.02;;;;;;;;;;5080293;28;20051;-70
2023/06/29 10:49:34;;;;;;;1.65;1.00;;;;;;;;;;5081815;28;20052;-67
2023/06/29 10:52:03;;;;;;;2.17;1.02;;;;;;;;;;5078099;28;20152;-69
2023/06/29 10:54:32;;;;;;;1.25;0.90;;;;;;;;;;5078435;28;20098;-69
2023/06/29 10:57:01;;;;;;;1.52;1.20;;;;;;;;;;5079894;28;20139;-68
2023/06/29 10:59:31;;;;;;;1.20;1.00;;;;;;;;;;5081047;28;20094;-75
2023/06/29 11:02:00;;;;;;;2.92;1.10;;;;;;;;;;5081107;28;20494;-68
2023/06/29 11:04:30;;;;;;;1.48;1.10;;;;;;;;;;5081770;28;20043;-70
2023/06/29 11:07:05;;;;;;;1.67;1.05;;;;;;;;;;5080829;28;20040;-76
2023/06/29 11:09:33;;;;;;;4.93;1.33;;;;;;;;;;5083306;28;20511;-70
2023/06/29 11:12:02;;;;;;;2.80;1.30;;;;;;;;;;5081383;28;20105;-69
2023/06/29 11:14:30;;;;;;;2.30;0.82;;;;;;;;;;5081017;28;20052;-71
2023/06/29 11:17:00;;;;;;;1.73;1.10;;;;;;;;;;5080951;28;20125;-70
2023/06/29 11:19:31;;;;;;;2.35;1.30;;;;;;;;;;5083292;28;20044;-69
2023/06/29 11:22:00;;;;;;;4.82;1.27;;;;;;;;;;5082028;28;20044;-70
2023/06/29 11:24:28;;;;;;;1.92;1.10;;;;;;;;;;5081734;28;20047;-69
2023/06/29 11:26:57;;;;;;;2.03;1.10;;;;;;;;;;5078516;28;20047;-69
2023/06/29 11:29:28;;;;;;;2.90;1.30;;;;;;;;;;5082266;28;20044;-68
2023/06/29 11:31:57;;;;;;;3.00;1.10;;;;;;;;;;5079079;28;20044;-73
2023/06/29 11:34:25;;;;;;;2.05;0.98;;;;;;;;;;5080911;28;20500;-69
2023/06/29 11:36:56;;;;;;;2.53;1.20;;;;;;;;;;5079585;28;20079;-72
2023/06/29 11:39:41;;;;;;;1.45;1.00;;;;;;;;;;5081158;28;20144;-75
2023/06/29 11:42:10;;;;;;;1.63;1.15;;;;;;;;;;5083952;28;20150;-73
2023/06/29 11:44:39;;;;;;;1.38;1.00;;;;;;;;;;5084713;28;20048;-71
2023/06/29 11:47:08;;;;;;;2.35;1.67;;;;;;;;;;5083366;28;20040;-68
2023/06/29 11:49:57;;;;;;;2.58;1.10;;;;;;;;;;5081848;28;20044;-75
2023/06/29 11:52:27;;;;;;;2.10;1.20;;;;;;;;;;5085462;28;20047;-69
2023/06/29 11:54:55;;;;;;;1.75;0.85;;;;;;;;;;5085734;28;20142;-69
2023/06/29 11:57:24;;;;;;;5.72;1.20;;;;;;;;;;5085347;28;20052;-75
2023/06/29 11:59:52;;;;;;;1.75;1.27;;;;;;;;;;5084772;28;20049;-69
2023/06/29 12:02:21;;;;;;;1.88;0.85;;;;;;;;;;5085336;28;20048;-74
2023/06/29 12:04:57;;;;;;;5.03;1.20;;;;;;;;;;5083656;28;20509;-68
2023/06/29 12:07:37;;;;;;;1.15;0.82;;;;;;;;;;5084192;28;20048;-68
2023/06/29 12:10:06;;;;;;;2.90;1.15;;;;;;;;;;5084870;28;20067;-70
2023/06/29 12:12:36;;;;;;;1.60;1.20;;;;;;;;;;5084243;28;20515;-68
2023/06/29 12:15:15;;;;;;;1.98;1.10;;;;;;;;;;5081932;28;20040;-68
2023/06/29 12:17:44;;;;;;;1.27;0.82;;;;;;;;;;5083722;28;20043;-69
2023/06/29 12:20:16;;;;;;;2.50;1.25;;;;;;;;;;5079581;28;20132;-72
2023/06/29 12:22:47;;;;;;;2.58;1.10;;;;;;;;;;5083656;28;20098;-70
2023/06/29 12:25:16;;;;;;;1.45;1.00;;;;;;;;;;5084048;28;20059;-73
2023/06/29 12:27:45;;;;;;;2.13;1.33;;;;;;;;;;5084351;28;20044;-71
2023/06/29 12:30:14;;;;;;;2.17;1.15;;;;;;;;;;5085655;28;20070;-70
2023/06/29 12:32:43;;;;;;;3.78;1.15;;;;;;;;;;5083879;28;20055;-68
2023/06/29 12:35:12;;;;;;;1.95;0.95;;;;;;;;;;5083908;28;20055;-68
2023/06/29 12:37:40;;;;;;;1.60;0.95;;;;;;;;;;5084366;28;20105;-73
2023/06/29 12:40:10;;;;;;;1.63;1.05;;;;;;;;;;5083749;28;20055;-70
2023/06/29 12:42:39;;;;;;;1.27;1.17;;;;;;;;;;5083980;28;20155;-70
2023/06/29 12:45:08;;;;;;;1.30;0.90;;;;;;;;;;5083388;28;20050;-68
2023/06/29 12:47:37;;;;;;;3.58;1.30;;;;;;;;;;5084883;28;20559;-68
2023/06/29 12:50:07;;;;;;;5.90;1.38;;;;;;;;;;5083648;28;20059;-71
2023/06/29 12:52:35;;;;;;;2.17;1.00;;;;;;;;;;5079328;28;20035;-71
2023/06/29 12:55:04;;;;;;;2.53;1.10;;;;;;;;;;5086074;28;20087;-69
2023/06/29 12:57:33;;;;;;;2.08;0.98;;;;;;;;;;5081738;28;20162;-69
2023/06/29 13:00:04;;;;;;;1.90;1.05;;;;;;;;;;5084615;28;20051;-69
2023/06/29 13:02:33;;;;;;;2.83;1.20;;;;;;;;;;5082808;28;20474;-68
2023/06/29 13:05:01;;;;;;;4.68;1.10;;;;;;;;;;5082684;28;20076;-68
2023/06/29 13:07:30;;;;;;;1.77;1.00;;;;;;;;;;5082253;28;20051;-68
2023/06/29 13:09:59;;;;;;;3.33;1.27;;;;;;;;;;5083165;28;20052;-70
2023/06/29 13:12:29;;;;;;;1.92;1.23;;;;;;;;;;5082841;28;20448;-68
2023/06/29 13:14:59;;;;;;;4.00;1.15;;;;;;;;;;5083021;28;20493;-69
2023/06/29 13:17:27;;;;;;;1.52;1.10;;;;;;;;;;5084767;28;20409;-68
2023/06/29 13:19:56;;;;;;;2.15;1.17;;;;;;;;;;5082146;28;20070;-69
2023/06/29 13:22:24;;;;;;;3.25;1.05;;;;;;;;;;5080511;28;20484;-69
2023/06/29 13:24:53;;;;;;;3.13;1.25;;;;;;;;;;5081065;28;20051;-69
2023/06/29 13:27:21;;;;;;;3.10;1.30;;;;;;;;;;5083713;28;20078;-68
2023/06/29 13:29:49;;;;;;;1.60;1.15;;;;;;;;;;5083189;28;20141;-70
2023/06/29 13:32:19;;;;;;;1.38;1.00;;;;;;;;;;5081908;28;20756;-68
2023/06/29 13:34:48;;;;;;;1.58;1.17;;;;;;;;;;5082705;28;20040;-68
2023/06/29 13:37:16;;;;;;;1.60;1.10;;;;;;;;;;5081801;28;20044;-68
2023/06/29 13:39:45;;;;;;;2.03;1.00;;;;;;;;;;5083821;28;20134;-71
2023/06/29 13:42:16;;;;;;;1.48;1.00;;;;;;;;;;5080797;28;20477;-75
2023/06/29 13:44:45;;;;;;;1.08;0.93;;;;;;;;;;5081704;28;20423;-69
2023/06/29 13:47:18;;;;;;;1.33;1.00;;;;;;;;;;5082024;28;20074;-70
2023/06/29 13:49:49;;;;;;;2.00;1.17;;;;;;;;;;5082419;28;20036;-67
2023/06/29 13:52:17;;;;;;;1.90;1.20;;;;;;;;;;5081984;28;20168;-69
2023/06/29 13:54:45;;;;;;;1.20;1.05;;;;;;;;;;5081692;28;20132;-72
2023/06/29 13:57:14;;;;;;;1.92;1.00;;;;;;;;;;5081336;28;20047;-70
2023/06/29 13:59:42;;;;;;;2.60;1.20;;;;;;;;;;5079446;28;20056;-69
2023/06/29 14:02:11;;;;;;;1.73;1.27;;;;;;;;;;5080117;28;20079;-67
2023/06/29 14:04:39;;;;;;;1.17;1.08;;;;;;;;;;5080649;28;20052;-67
2023/06/29 14:07:09;;;;;;;1.65;1.05;;;;;;;;;;5082030;28;20040;-69
2023/06/29 14:09:37;;;;;;;1.48;1.08;;;;;;;;;;5080936;28;20043;-70
2023/06/29 14:12:06;;;;;;;1.33;1.08;;;;;;;;;;5081464;28;20087;-70
2023/06/29 14:14:35;;;;;;;1.90;0.90;;;;;;;;;;5079638;28;20040;-68
2023/06/29 14:17:04;;;;;;;2.22;1.00;;;;;;;;;;5081867;28;21341;-70
2023/06/29 14:19:32;;;;;;;1.30;0.98;;;;;;;;;;5082530;28;20129;-73
2023/06/29 14:22:01;;;;;;;1.60;1.00;;;;;;;;;;5080729;28;20052;-69
2023/06/29 14:24:30;;;;;;;2.65;1.17;;;;;;;;;;5080757;28;20039;-68
2023/06/29 14:26:59;;;;;;;3.03;1.17;;;;;;;;;;5082595;28;20451;-68
2023/06/29 14:29:28;;;;;;;1.98;1.00;;;;;;;;;;5083264;28;20059;-68
2023/06/29 14:31:56;;;;;;;2.13;1.10;;;;;;;;;;5082167;28;20074;-69
2023/06/29 14:34:25;;;;;;;1.20;1.08;;;;;;;;;;5079035;28;20044;-69
2023/06/29 14:36:53;;;;;;;2.25;1.50;;;;;;;;;;5082575;28;20082;-67
2023/06/29 14:39:21;;;;;;;1.90;1.00;;;;;;;;;;5080223;28;20043;-73
2023/06/29 14:41:56;;;;;;;2.28;1.10;;;;;;;;;;5079089;28;20587;-68
2023/06/29 14:44:24;;;;;;;1.30;0.90;;;;;;;;;;5078773;28;20058;-73
2023/06/29 14:46:53;;;;;;;1.70;1.13;;;;;;;;;;5081141;28;20082;-70
2023/06/29 14:49:21;;;;;;;1.27;1.00;;;;;;;;;;5081506;28;20101;-69
2023/06/29 14:51:49;;;;;;;1.42;0.88;;;;;;;;;;5082664;28;20461;-68
2023/06/29 14:54:19;;;;;;;2.53;1.20;;;;;;;;;;5081759;28;20559;-73
2023/06/29 14:56:47;;;;;;;2.17;1.20;;;;;;;;;;5082256;28;20123;-70